Time;durP1;ratioP1;P1;durP2;ratioP2;P2;SDS_P1;SDS_P2;PMS_P1;PMS_P2;Temp;Humidity;BMP_temperature;BMP_pressure;BME280_temperature;BME280_humidity;BME280_pressure;Samples;Min_cycle;Max_cycle;Signal;HPM_P1;HPM_P2
2021/12/31 00:01:11;;;;;;;33.35;16.35;;;;;;;;;;5032523;28;20044;-78
2021/12/31 00:03:37;;;;;;;30.23;15.82;;;;;;;;;;5031283;28;20033;-77
2021/12/31 00:06:04;;;;;;;30.75;14.60;;;;;;;;;;5032615;28;20394;-78
2021/12/31 00:08:30;;;;;;;39.60;22.23;;;;;;;;;;5029270;28;20029;-77
2021/12/31 00:10:59;;;;;;;41.92;22.70;;;;;;;;;;5012627;28;20026;-79
2021/12/31 00:13:26;;;;;;;33.35;19.77;;;;;;;;;;5018091;28;20025;-79
2021/12/31 00:15:52;;;;;;;46.15;23.17;;;;;;;;;;5028357;28;20037;-79
2021/12/31 00:18:18;;;;;;;51.80;21.33;;;;;;;;;;5012098;28;20030;-80
2021/12/31 00:20:44;;;;;;;44.45;20.90;;;;;;;;;;5024251;28;20092;-80
2021/12/31 00:23:13;;;;;;;41.25;24.90;;;;;;;;;;5032006;28;20053;-77
2021/12/31 00:25:40;;;;;;;42.05;20.45;;;;;;;;;;5031712;28;20483;-77
2021/12/31 00:28:06;;;;;;;22.50;13.50;;;;;;;;;;5032470;28;20041;-79
2021/12/31 00:30:33;;;;;;;20.67;11.30;;;;;;;;;;5031259;28;20033;-79
2021/12/31 00:33:01;;;;;;;13.70;8.68;;;;;;;;;;5025723;28;20048;-79
2021/12/31 00:35:27;;;;;;;17.08;8.75;;;;;;;;;;5023851;28;20774;-79
2021/12/31 00:37:53;;;;;;;13.55;9.48;;;;;;;;;;5018397;28;20084;-79
2021/12/31 00:40:19;;;;;;;14.10;8.88;;;;;;;;;;5019010;28;20038;-79
2021/12/31 00:42:45;;;;;;;15.05;9.15;;;;;;;;;;5031612;28;20076;-79
2021/12/31 00:45:13;;;;;;;17.48;11.10;;;;;;;;;;5031687;28;20034;-78
2021/12/31 00:47:39;;;;;;;30.33;15.18;;;;;;;;;;5026949;28;20038;-79
2021/12/31 00:50:06;;;;;;;45.20;19.98;;;;;;;;;;5013875;28;20483;-76
2021/12/31 00:52:32;;;;;;;42.60;19.00;;;;;;;;;;5030654;28;20026;-79
2021/12/31 00:54:58;;;;;;;33.10;17.75;;;;;;;;;;5031262;28;20425;-79
2021/12/31 00:57:24;;;;;;;28.17;14.13;;;;;;;;;;5031306;28;20125;-79
2021/12/31 00:59:50;;;;;;;34.80;15.57;;;;;;;;;;5032482;28;20032;-79
2021/12/31 01:02:18;;;;;;;29.17;14.05;;;;;;;;;;5031501;28;20041;-78
2021/12/31 01:04:44;;;;;;;30.90;15.70;;;;;;;;;;5016678;28;20029;-79
2021/12/31 01:07:10;;;;;;;29.50;15.18;;;;;;;;;;5023389;28;20041;-79
2021/12/31 01:09:37;;;;;;;53.75;29.17;;;;;;;;;;5030774;28;20495;-79
2021/12/31 01:12:05;;;;;;;82.10;47.72;;;;;;;;;;5027505;28;20037;-79
2021/12/31 01:14:37;;;;;;;106.00;59.53;;;;;;;;;;5030492;28;20105;-79
2021/12/31 01:17:07;;;;;;;56.40;32.38;;;;;;;;;;5026913;28;20026;-80
2021/12/31 01:19:48;;;;;;;46.47;24.90;;;;;;;;;;5031071;28;20079;-79
2021/12/31 01:22:16;;;;;;;39.78;23.85;;;;;;;;;;5011269;28;20650;-79
2021/12/31 01:24:42;;;;;;;29.85;18.85;;;;;;;;;;5025656;28;20033;-79
2021/12/31 01:27:08;;;;;;;32.95;18.00;;;;;;;;;;5030399;28;20045;-79
2021/12/31 01:29:34;;;;;;;37.13;21.42;;;;;;;;;;5030896;28;20038;-79
2021/12/31 01:32:00;;;;;;;26.85;15.93;;;;;;;;;;5030300;28;20049;-79
2021/12/31 01:34:26;;;;;;;24.73;15.35;;;;;;;;;;5030787;28;20061;-79
2021/12/31 01:36:52;;;;;;;20.15;12.60;;;;;;;;;;5030621;28;20049;-79
2021/12/31 01:39:19;;;;;;;17.15;11.50;;;;;;;;;;5030664;28;20037;-79
2021/12/31 01:41:45;;;;;;;19.02;11.32;;;;;;;;;;5030920;28;20037;-79
2021/12/31 01:44:11;;;;;;;16.85;11.20;;;;;;;;;;5035664;28;20060;-79
2021/12/31 01:46:40;;;;;;;21.92;13.95;;;;;;;;;;5030354;28;20498;-79
2021/12/31 01:49:19;;;;;;;69.70;27.48;;;;;;;;;;5030128;28;20038;-79
2021/12/31 01:51:45;;;;;;;72.78;29.73;;;;;;;;;;5030729;28;20076;-79
2021/12/31 01:54:11;;;;;;;62.15;27.55;;;;;;;;;;5029907;28;20028;-79
2021/12/31 01:56:37;;;;;;;60.08;25.85;;;;;;;;;;5030352;28;20046;-79
2021/12/31 01:59:03;;;;;;;67.60;33.95;;;;;;;;;;5030001;28;20032;-79
2021/12/31 02:01:29;;;;;;;46.58;21.10;;;;;;;;;;5030177;28;20125;-79
2021/12/31 02:03:56;;;;;;;38.45;19.77;;;;;;;;;;5029547;28;20132;-78
2021/12/31 02:06:22;;;;;;;34.20;17.05;;;;;;;;;;5030328;28;20034;-79
2021/12/31 02:08:48;;;;;;;36.20;17.85;;;;;;;;;;5029771;28;20052;-79
2021/12/31 02:11:16;;;;;;;30.15;15.52;;;;;;;;;;5030300;28;20504;-79
2021/12/31 02:13:42;;;;;;;55.83;27.65;;;;;;;;;;5037771;28;20021;-79
2021/12/31 02:16:09;;;;;;;29.25;14.95;;;;;;;;;;5040605;28;20039;-79
2021/12/31 02:18:35;;;;;;;49.58;28.42;;;;;;;;;;5029058;28;20014;-79
2021/12/31 02:21:03;;;;;;;35.20;19.50;;;;;;;;;;5030154;28;20075;-78
2021/12/31 02:23:38;;;;;;;39.75;22.98;;;;;;;;;;5016337;28;20054;-79
2021/12/31 02:26:04;;;;;;;28.30;15.48;;;;;;;;;;5026922;28;20349;-78
2021/12/31 02:28:30;;;;;;;69.60;52.83;;;;;;;;;;5030028;28;20086;-78
2021/12/31 02:31:00;;;;;;;63.85;46.60;;;;;;;;;;5030081;28;20030;-78
2021/12/31 02:33:27;;;;;;;86.60;56.28;;;;;;;;;;5029945;28;20633;-78
2021/12/31 02:35:53;;;;;;;92.97;58.65;;;;;;;;;;5029727;28;20030;-78
2021/12/31 02:38:19;;;;;;;53.13;36.13;;;;;;;;;;5029907;28;20037;-78
2021/12/31 02:40:45;;;;;;;52.25;30.25;;;;;;;;;;5029333;28;20471;-78
2021/12/31 02:43:11;;;;;;;51.33;33.50;;;;;;;;;;5029807;28;20627;-78
2021/12/31 02:45:40;;;;;;;42.15;27.17;;;;;;;;;;5029374;28;20040;-78
2021/12/31 02:48:06;;;;;;;47.22;30.00;;;;;;;;;;5030303;28;20033;-78
2021/12/31 02:50:34;;;;;;;52.50;30.23;;;;;;;;;;5029754;28;20486;-78
2021/12/31 02:53:04;;;;;;;67.70;39.97;;;;;;;;;;5030835;28;20041;-78
2021/12/31 02:55:31;;;;;;;55.00;36.30;;;;;;;;;;5029605;28;20064;-78
2021/12/31 02:57:58;;;;;;;83.60;50.35;;;;;;;;;;5030522;28;20697;-78
2021/12/31 03:00:24;;;;;;;63.67;41.60;;;;;;;;;;5031823;28;20389;-78
2021/12/31 03:02:51;;;;;;;46.13;31.70;;;;;;;;;;5044423;28;20047;-78
2021/12/31 03:05:17;;;;;;;55.97;32.53;;;;;;;;;;5028891;28;20025;-78
2021/12/31 03:07:46;;;;;;;44.42;28.10;;;;;;;;;;5030047;28;20041;-78
2021/12/31 03:10:12;;;;;;;51.65;28.55;;;;;;;;;;5027002;28;20041;-78
2021/12/31 03:12:42;;;;;;;67.40;44.13;;;;;;;;;;5026012;28;20049;-78
2021/12/31 03:15:09;;;;;;;74.95;48.15;;;;;;;;;;5029361;28;20471;-78
2021/12/31 03:17:35;;;;;;;41.15;22.13;;;;;;;;;;5029788;28;20038;-78
2021/12/31 03:20:13;;;;;;;39.00;22.13;;;;;;;;;;5031827;28;20348;-78
2021/12/31 03:22:40;;;;;;;25.35;15.48;;;;;;;;;;5032865;28;20061;-78
2021/12/31 03:25:07;;;;;;;36.63;22.40;;;;;;;;;;5026918;28;20026;-78
2021/12/31 03:27:33;;;;;;;29.02;17.77;;;;;;;;;;5036281;28;20199;-78
2021/12/31 03:29:59;;;;;;;65.75;32.42;;;;;;;;;;5033398;28;20030;-78
2021/12/31 03:32:25;;;;;;;37.20;18.83;;;;;;;;;;5032863;28;20045;-78
2021/12/31 03:34:51;;;;;;;34.75;19.58;;;;;;;;;;5028662;28;20026;-78
2021/12/31 03:37:17;;;;;;;35.33;17.95;;;;;;;;;;5014155;28;20044;-78
2021/12/31 03:39:43;;;;;;;24.40;13.88;;;;;;;;;;5024492;28;20072;-78
2021/12/31 03:42:14;;;;;;;29.27;15.25;;;;;;;;;;5032412;28;20091;-78
2021/12/31 03:44:40;;;;;;;41.30;17.75;;;;;;;;;;5033120;28;20072;-78
2021/12/31 03:47:06;;;;;;;33.50;14.88;;;;;;;;;;5026076;28;20069;-78
2021/12/31 03:49:32;;;;;;;57.72;14.93;;;;;;;;;;5012915;28;20104;-78
2021/12/31 03:51:58;;;;;;;37.97;15.82;;;;;;;;;;5016570;28;20044;-78
2021/12/31 03:54:24;;;;;;;33.42;16.05;;;;;;;;;;5025254;28;20057;-78
2021/12/31 03:56:50;;;;;;;24.80;12.23;;;;;;;;;;5032118;28;20069;-78
2021/12/31 03:59:16;;;;;;;21.77;11.60;;;;;;;;;;5032630;28;20125;-78
2021/12/31 04:01:42;;;;;;;22.15;13.70;;;;;;;;;;5032522;28;20743;-78
2021/12/31 04:04:09;;;;;;;21.63;14.05;;;;;;;;;;5032106;28;20029;-78
2021/12/31 04:06:35;;;;;;;37.17;19.35;;;;;;;;;;5032697;28;20145;-78
2021/12/31 04:09:01;;;;;;;18.35;9.93;;;;;;;;;;5030613;28;20144;-78
2021/12/31 04:11:27;;;;;;;16.15;8.23;;;;;;;;;;5032314;28;20436;-78
2021/12/31 04:13:53;;;;;;;19.17;13.23;;;;;;;;;;5032009;28;20021;-78
2021/12/31 04:16:20;;;;;;;28.75;21.30;;;;;;;;;;5032126;28;20045;-78
2021/12/31 04:18:45;;;;;;;16.30;12.70;;;;;;;;;;5031578;28;20033;-78
2021/12/31 04:21:15;;;;;;;17.23;9.68;;;;;;;;;;5032370;28;20042;-78
2021/12/31 04:23:52;;;;;;;14.68;6.47;;;;;;;;;;5031895;28;20029;-78
2021/12/31 04:26:18;;;;;;;12.15;5.50;;;;;;;;;;5032254;28;20120;-78
2021/12/31 04:28:44;;;;;;;21.92;15.07;;;;;;;;;;5031858;28;20036;-78
2021/12/31 04:31:10;;;;;;;21.10;10.45;;;;;;;;;;5032148;28;20041;-78
2021/12/31 04:33:36;;;;;;;15.23;7.18;;;;;;;;;;5019932;28;20395;-78
2021/12/31 04:36:02;;;;;;;9.95;6.07;;;;;;;;;;5031994;28;20125;-78
2021/12/31 04:38:28;;;;;;;9.75;5.60;;;;;;;;;;5031307;28;20053;-78
2021/12/31 04:40:54;;;;;;;15.80;9.27;;;;;;;;;;5031999;28;20585;-78
2021/12/31 04:43:20;;;;;;;14.10;9.13;;;;;;;;;;5031605;28;20037;-78
2021/12/31 04:45:46;;;;;;;12.32;7.88;;;;;;;;;;5050407;28;20048;-78
2021/12/31 04:48:12;;;;;;;14.77;8.50;;;;;;;;;;5051395;28;20036;-78
2021/12/31 04:50:38;;;;;;;8.93;4.18;;;;;;;;;;5034613;28;20025;-78
2021/12/31 04:53:05;;;;;;;8.55;4.47;;;;;;;;;;5032100;28;20131;-77
2021/12/31 04:55:31;;;;;;;10.00;6.57;;;;;;;;;;5024383;28;20029;-77
2021/12/31 04:57:57;;;;;;;9.05;6.32;;;;;;;;;;5031705;28;20029;-78
2021/12/31 05:00:23;;;;;;;10.43;4.82;;;;;;;;;;5030404;28;20063;-77
2021/12/31 05:02:49;;;;;;;7.38;3.70;;;;;;;;;;5020754;28;20080;-78
2021/12/31 05:05:15;;;;;;;6.70;3.63;;;;;;;;;;5030800;28;20686;-78
2021/12/31 05:07:41;;;;;;;7.70;3.00;;;;;;;;;;5031805;28;20041;-78
2021/12/31 05:10:08;;;;;;;9.10;3.42;;;;;;;;;;5030748;28;20423;-77
2021/12/31 05:12:36;;;;;;;11.45;6.13;;;;;;;;;;5031734;28;20116;-78
2021/12/31 05:15:06;;;;;;;8.23;3.95;;;;;;;;;;5030914;28;20034;-78
2021/12/31 05:17:32;;;;;;;5.80;2.53;;;;;;;;;;5012758;28;20030;-77
2021/12/31 05:19:58;;;;;;;6.45;2.97;;;;;;;;;;5014449;28;20061;-77
2021/12/31 05:22:24;;;;;;;7.93;3.35;;;;;;;;;;5030676;28;20203;-78
2021/12/31 05:24:50;;;;;;;8.43;2.55;;;;;;;;;;5030695;28;20655;-78
2021/12/31 05:27:16;;;;;;;10.55;6.03;;;;;;;;;;5030799;28;20120;-78
2021/12/31 05:29:42;;;;;;;7.68;3.22;;;;;;;;;;5030859;28;20112;-78
2021/12/31 05:32:08;;;;;;;7.95;3.80;;;;;;;;;;5030556;28;20038;-78
2021/12/31 05:34:34;;;;;;;8.07;4.40;;;;;;;;;;5014219;28;20034;-78
2021/12/31 05:37:00;;;;;;;10.50;6.57;;;;;;;;;;5022056;28;20040;-78
2021/12/31 05:39:26;;;;;;;10.35;7.30;;;;;;;;;;5030789;28;20091;-78
2021/12/31 05:41:53;;;;;;;8.75;4.72;;;;;;;;;;5029857;28;20029;-78
2021/12/31 05:44:19;;;;;;;7.57;3.63;;;;;;;;;;5022959;28;20037;-78
2021/12/31 05:46:48;;;;;;;6.93;4.00;;;;;;;;;;5019509;28;20029;-78
2021/12/31 05:49:14;;;;;;;7.63;3.28;;;;;;;;;;5030868;28;20396;-78
2021/12/31 05:51:40;;;;;;;12.55;5.88;;;;;;;;;;5029794;28;20160;-78
2021/12/31 05:54:07;;;;;;;9.65;4.63;;;;;;;;;;5030486;28;20034;-78
2021/12/31 05:56:33;;;;;;;6.38;3.58;;;;;;;;;;5023564;28;20038;-78
2021/12/31 05:58:59;;;;;;;7.80;3.80;;;;;;;;;;5030119;28;20033;-78
2021/12/31 06:01:25;;;;;;;8.88;4.75;;;;;;;;;;5029788;28;20037;-78
2021/12/31 06:03:51;;;;;;;8.07;4.03;;;;;;;;;;5030317;28;20112;-78
2021/12/31 06:06:17;;;;;;;7.28;4.35;;;;;;;;;;5028459;28;20071;-78
2021/12/31 06:08:43;;;;;;;9.63;4.55;;;;;;;;;;5030539;28;20057;-78
2021/12/31 06:11:09;;;;;;;8.95;4.95;;;;;;;;;;5033490;28;20112;-78
2021/12/31 06:13:36;;;;;;;11.60;7.15;;;;;;;;;;5033485;28;20137;-78
2021/12/31 06:16:02;;;;;;;11.77;6.35;;;;;;;;;;5029984;28;20064;-78
2021/12/31 06:18:28;;;;;;;11.77;7.90;;;;;;;;;;5030144;28;20132;-78
2021/12/31 06:20:55;;;;;;;8.30;4.40;;;;;;;;;;5017202;28;20870;-78
2021/12/31 06:23:21;;;;;;;11.43;6.32;;;;;;;;;;5025920;28;20114;-78
2021/12/31 06:25:47;;;;;;;10.70;4.55;;;;;;;;;;5025140;28;20492;-78
2021/12/31 06:28:13;;;;;;;7.88;4.32;;;;;;;;;;5014888;28;20065;-78
2021/12/31 06:30:39;;;;;;;10.02;4.55;;;;;;;;;;5026269;28;20334;-78
2021/12/31 06:33:05;;;;;;;7.68;4.07;;;;;;;;;;5017077;28;21038;-78
2021/12/31 06:35:31;;;;;;;11.50;6.18;;;;;;;;;;5029133;28;20033;-77
2021/12/31 06:37:58;;;;;;;8.48;3.95;;;;;;;;;;5030407;28;20071;-78
2021/12/31 06:40:24;;;;;;;9.07;5.05;;;;;;;;;;5029301;28;20021;-78
2021/12/31 06:42:51;;;;;;;13.43;8.10;;;;;;;;;;5030543;28;20041;-77
2021/12/31 06:45:17;;;;;;;8.98;5.43;;;;;;;;;;5031120;28;20067;-77
2021/12/31 06:47:43;;;;;;;8.48;5.43;;;;;;;;;;5026524;28;20042;-78
2021/12/31 06:50:09;;;;;;;21.80;12.43;;;;;;;;;;5025176;28;20029;-78
2021/12/31 06:52:38;;;;;;;12.13;6.03;;;;;;;;;;5023341;28;20066;-77
2021/12/31 06:55:06;;;;;;;17.17;7.47;;;;;;;;;;5017264;28;20025;-77
2021/12/31 06:57:32;;;;;;;10.48;4.60;;;;;;;;;;5033471;28;20038;-77
2021/12/31 06:59:58;;;;;;;10.95;6.05;;;;;;;;;;5041851;28;20357;-77
2021/12/31 07:02:24;;;;;;;13.30;6.68;;;;;;;;;;5033953;28;20052;-78
2021/12/31 07:04:50;;;;;;;17.85;9.98;;;;;;;;;;5041714;28;20037;-78
2021/12/31 07:07:16;;;;;;;17.60;9.73;;;;;;;;;;5023522;28;20555;-78
2021/12/31 07:09:41;;;;;;;16.63;11.95;;;;;;;;;;5032079;28;20072;-78
2021/12/31 07:12:08;;;;;;;12.65;6.47;;;;;;;;;;5025156;28;20042;-77
2021/12/31 07:14:34;;;;;;;127.20;88.95;;;;;;;;;;5041091;28;20422;-77
2021/12/31 07:17:00;;;;;;;15.20;10.00;;;;;;;;;;5039979;28;20373;-77
2021/12/31 07:19:26;;;;;;;14.43;9.90;;;;;;;;;;5033101;28;20026;-77
2021/12/31 07:21:52;;;;;;;12.13;7.10;;;;;;;;;;5032284;28;20061;-77
2021/12/31 07:24:18;;;;;;;11.15;6.45;;;;;;;;;;5030342;28;20025;-77
2021/12/31 07:26:44;;;;;;;12.23;7.00;;;;;;;;;;5025687;28;20041;-77
2021/12/31 07:29:10;;;;;;;12.48;6.45;;;;;;;;;;5041234;28;20655;-78
2021/12/31 07:31:36;;;;;;;11.43;7.15;;;;;;;;;;5020235;28;20049;-77
2021/12/31 07:34:02;;;;;;;18.60;13.77;;;;;;;;;;5023871;28;20034;-78
2021/12/31 07:36:29;;;;;;;19.65;12.95;;;;;;;;;;5032230;28;20704;-79
2021/12/31 07:39:05;;;;;;;26.65;18.73;;;;;;;;;;5017279;28;20548;-77
2021/12/31 07:41:31;;;;;;;22.75;13.13;;;;;;;;;;5023551;28;20037;-78
2021/12/31 07:43:57;;;;;;;18.95;11.40;;;;;;;;;;5025339;28;20095;-77
2021/12/31 07:46:23;;;;;;;16.10;9.13;;;;;;;;;;5020279;28;20116;-77
2021/12/31 07:48:50;;;;;;;15.05;9.98;;;;;;;;;;5030028;28;20052;-78
2021/12/31 07:51:16;;;;;;;17.38;9.57;;;;;;;;;;5032518;28;20041;-77
2021/12/31 07:53:42;;;;;;;13.75;9.32;;;;;;;;;;5024346;28;20043;-77
2021/12/31 07:56:08;;;;;;;11.43;8.27;;;;;;;;;;5030790;28;20025;-77
2021/12/31 07:58:34;;;;;;;21.83;12.02;;;;;;;;;;5031546;28;20387;-77
2021/12/31 08:01:00;;;;;;;19.52;11.95;;;;;;;;;;5025598;28;20085;-77
2021/12/31 08:03:26;;;;;;;17.52;11.98;;;;;;;;;;5037591;28;20056;-77
2021/12/31 08:05:52;;;;;;;14.63;9.50;;;;;;;;;;5034060;28;20403;-77
2021/12/31 08:08:19;;;;;;;13.52;8.85;;;;;;;;;;5024029;28;20095;-77
2021/12/31 08:10:46;;;;;;;14.40;9.38;;;;;;;;;;5032012;28;20076;-77
2021/12/31 08:13:12;;;;;;;23.00;15.73;;;;;;;;;;5031547;28;20037;-77
2021/12/31 08:15:38;;;;;;;17.48;11.65;;;;;;;;;;5022341;28;20033;-79
2021/12/31 08:18:04;;;;;;;21.13;11.02;;;;;;;;;;5029371;28;20040;-78
2021/12/31 08:20:30;;;;;;;22.65;11.80;;;;;;;;;;5025828;28;20025;-77
2021/12/31 08:23:05;;;;;;;19.42;12.88;;;;;;;;;;5026056;28;20068;-78
2021/12/31 08:25:31;;;;;;;23.95;16.88;;;;;;;;;;5021992;28;20553;-78
2021/12/31 08:27:57;;;;;;;44.17;22.25;;;;;;;;;;5029217;28;20104;-78
2021/12/31 08:30:23;;;;;;;69.68;37.47;;;;;;;;;;5038837;28;20040;-78
2021/12/31 08:32:49;;;;;;;42.58;26.70;;;;;;;;;;5020261;28;20034;-77
2021/12/31 08:35:15;;;;;;;38.17;21.88;;;;;;;;;;5029722;28;20031;-77
2021/12/31 08:37:41;;;;;;;30.55;18.25;;;;;;;;;;5025970;28;20852;-78
2021/12/31 08:40:07;;;;;;;37.00;25.10;;;;;;;;;;5029388;28;20034;-75
2021/12/31 08:42:33;;;;;;;39.63;29.90;;;;;;;;;;5024549;28;20633;-77
2021/12/31 08:44:59;;;;;;;33.72;25.65;;;;;;;;;;5028506;28;20572;-77
2021/12/31 08:47:25;;;;;;;58.97;44.03;;;;;;;;;;5022902;28;20032;-77
2021/12/31 08:49:51;;;;;;;73.30;49.42;;;;;;;;;;5031439;28;20064;-77
2021/12/31 08:52:17;;;;;;;50.45;36.30;;;;;;;;;;5031175;28;20943;-77
2021/12/31 08:54:43;;;;;;;40.38;29.60;;;;;;;;;;5031292;28;20036;-77
2021/12/31 08:57:09;;;;;;;38.70;28.00;;;;;;;;;;5031671;28;20382;-77
2021/12/31 08:59:35;;;;;;;41.88;29.33;;;;;;;;;;5031804;28;20101;-77
2021/12/31 09:02:01;;;;;;;44.47;33.30;;;;;;;;;;5031145;28;20034;-77
2021/12/31 09:04:27;;;;;;;43.10;29.98;;;;;;;;;;5031495;28;20365;-77
2021/12/31 09:06:53;;;;;;;41.30;28.33;;;;;;;;;;5027308;28;20041;-77
2021/12/31 09:09:19;;;;;;;39.17;28.70;;;;;;;;;;5016779;28;20037;-77
2021/12/31 09:11:45;;;;;;;47.67;35.25;;;;;;;;;;5031049;28;20661;-77
2021/12/31 09:14:12;;;;;;;37.00;24.40;;;;;;;;;;5030288;28;20112;-77
2021/12/31 09:16:38;;;;;;;38.78;28.52;;;;;;;;;;5030095;28;20605;-77
2021/12/31 09:19:04;;;;;;;78.40;53.72;;;;;;;;;;5017197;28;20104;-78
2021/12/31 09:21:30;;;;;;;60.40;44.28;;;;;;;;;;5029845;28;20117;-77
2021/12/31 09:23:56;;;;;;;69.85;46.47;;;;;;;;;;5031027;28;20028;-77
2021/12/31 09:26:22;;;;;;;60.53;45.95;;;;;;;;;;5028725;28;20387;-77
2021/12/31 09:28:48;;;;;;;63.92;48.15;;;;;;;;;;5023063;28;20068;-77
2021/12/31 09:31:14;;;;;;;48.78;34.15;;;;;;;;;;5024358;28;20042;-77
2021/12/31 09:33:40;;;;;;;34.58;28.85;;;;;;;;;;5023522;28;20073;-77
2021/12/31 09:36:06;;;;;;;44.70;35.17;;;;;;;;;;5025788;28;20072;-76
2021/12/31 09:38:32;;;;;;;48.05;38.78;;;;;;;;;;5021368;28;20040;-77
2021/12/31 09:40:58;;;;;;;40.08;29.00;;;;;;;;;;5025611;28;20136;-77
2021/12/31 09:43:24;;;;;;;37.80;29.20;;;;;;;;;;5026802;28;20029;-77
2021/12/31 09:45:52;;;;;;;30.73;21.92;;;;;;;;;;5029468;28;20422;-76
2021/12/31 09:48:20;;;;;;;38.83;29.88;;;;;;;;;;5029473;28;20057;-76
2021/12/31 09:50:47;;;;;;;36.78;31.67;;;;;;;;;;5029901;28;20037;-76
2021/12/31 09:53:14;;;;;;;33.65;22.33;;;;;;;;;;5027363;28;20037;-76
2021/12/31 09:55:42;;;;;;;93.10;51.15;;;;;;;;;;5029869;28;20026;-75
2021/12/31 09:58:10;;;;;;;140.43;71.60;;;;;;;;;;5025940;28;20061;-75
2021/12/31 10:00:41;;;;;;;96.40;51.67;;;;;;;;;;5022822;28;20488;-75
2021/12/31 10:03:10;;;;;;;70.32;48.50;;;;;;;;;;5028943;28;20041;-76
2021/12/31 10:05:43;;;;;;;41.05;30.17;;;;;;;;;;5022326;28;20548;-75
2021/12/31 10:08:13;;;;;;;45.17;29.83;;;;;;;;;;5016040;28;20061;-76
2021/12/31 10:10:39;;;;;;;146.48;72.20;;;;;;;;;;5027352;28;20621;-75
2021/12/31 10:13:07;;;;;;;97.93;52.35;;;;;;;;;;5022671;28;20037;-75
2021/12/31 10:15:37;;;;;;;82.78;47.25;;;;;;;;;;5021922;28;20456;-76
2021/12/31 10:18:09;;;;;;;231.35;181.10;;;;;;;;;;5024712;28;20057;-75
2021/12/31 10:20:47;;;;;;;75.95;61.63;;;;;;;;;;5029575;28;20029;-76
2021/12/31 10:23:14;;;;;;;38.15;28.70;;;;;;;;;;5027353;28;20516;-76
2021/12/31 10:25:40;;;;;;;36.15;29.00;;;;;;;;;;5026415;28;20033;-76
2021/12/31 10:28:10;;;;;;;31.90;24.83;;;;;;;;;;5029523;28;20107;-75
2021/12/31 10:30:36;;;;;;;32.72;20.25;;;;;;;;;;5031923;28;20034;-76
2021/12/31 10:33:03;;;;;;;38.22;23.25;;;;;;;;;;5028574;28;20048;-75
2021/12/31 10:35:37;;;;;;;51.60;38.88;;;;;;;;;;5032926;28;20025;-75
2021/12/31 10:38:06;;;;;;;46.33;38.83;;;;;;;;;;5026101;28;20044;-76
2021/12/31 10:40:32;;;;;;;32.28;25.90;;;;;;;;;;5033434;28;20029;-76
2021/12/31 10:43:17;;;;;;;34.05;25.65;;;;;;;;;;5030886;28;20041;-76
2021/12/31 10:45:56;;;;;;;35.15;25.65;;;;;;;;;;5030557;28;20518;-76
2021/12/31 10:48:22;;;;;;;37.70;27.35;;;;;;;;;;5026975;28;20057;-76
2021/12/31 10:50:52;;;;;;;29.00;23.95;;;;;;;;;;5031320;28;20037;-75
2021/12/31 10:53:32;;;;;;;32.67;27.95;;;;;;;;;;5028713;28;20133;-75
2021/12/31 10:56:04;;;;;;;32.63;27.17;;;;;;;;;;5028419;28;20475;-76
2021/12/31 10:58:30;;;;;;;29.52;21.13;;;;;;;;;;5026113;28;20022;-75
2021/12/31 11:00:58;;;;;;;23.05;16.25;;;;;;;;;;5023425;28;20133;-75
2021/12/31 11:03:25;;;;;;;22.77;16.88;;;;;;;;;;5031788;28;20026;-76
2021/12/31 11:05:51;;;;;;;15.55;10.80;;;;;;;;;;5032000;28;20034;-75
2021/12/31 11:08:17;;;;;;;17.05;9.77;;;;;;;;;;5028298;28;20034;-75
2021/12/31 11:10:43;;;;;;;22.38;17.27;;;;;;;;;;5030922;28;20037;-75
2021/12/31 11:13:20;;;;;;;21.95;14.75;;;;;;;;;;5029532;28;20033;-75
2021/12/31 11:15:47;;;;;;;27.92;17.83;;;;;;;;;;5030116;28;20033;-76
2021/12/31 11:18:18;;;;;;;16.60;10.85;;;;;;;;;;5019557;28;20040;-76
2021/12/31 11:20:46;;;;;;;12.77;8.30;;;;;;;;;;5030052;28;20037;-76
2021/12/31 11:23:12;;;;;;;14.23;7.55;;;;;;;;;;5029647;28;20419;-76
2021/12/31 11:25:49;;;;;;;12.10;7.03;;;;;;;;;;5027682;28;20116;-76
2021/12/31 11:28:23;;;;;;;16.08;9.02;;;;;;;;;;5022671;28;20029;-76
2021/12/31 11:30:49;;;;;;;11.80;7.63;;;;;;;;;;5024194;28;20068;-77
2021/12/31 11:33:18;;;;;;;13.20;6.18;;;;;;;;;;5019200;28;20040;-76
2021/12/31 11:35:46;;;;;;;13.43;7.07;;;;;;;;;;5029839;28;20622;-76
2021/12/31 11:38:15;;;;;;;20.77;10.95;;;;;;;;;;5029880;28;20036;-76
2021/12/31 11:40:50;;;;;;;16.25;10.38;;;;;;;;;;5024208;28;20026;-76
2021/12/31 11:43:19;;;;;;;15.55;8.55;;;;;;;;;;5030985;28;20033;-76
2021/12/31 11:46:05;;;;;;;12.13;6.32;;;;;;;;;;5026575;28;20061;-76
2021/12/31 11:48:49;;;;;;;14.98;7.40;;;;;;;;;;5029824;28;20035;-76
2021/12/31 11:51:16;;;;;;;17.00;8.95;;;;;;;;;;5029561;28;20187;-76
2021/12/31 11:53:57;;;;;;;14.02;7.03;;;;;;;;;;5028244;28;20029;-76
2021/12/31 11:56:47;;;;;;;17.25;8.93;;;;;;;;;;5028864;28;20033;-76
2021/12/31 11:59:13;;;;;;;12.95;8.73;;;;;;;;;;5028886;28;20067;-76
2021/12/31 12:01:40;;;;;;;16.75;8.90;;;;;;;;;;5028984;28;20045;-76
2021/12/31 12:04:19;;;;;;;12.07;5.20;;;;;;;;;;5020189;28;20532;-76
2021/12/31 12:06:51;;;;;;;14.40;6.32;;;;;;;;;;5026732;28;20476;-76
2021/12/31 12:09:17;;;;;;;13.70;6.60;;;;;;;;;;5029380;28;20108;-76
2021/12/31 12:12:10;;;;;;;10.55;4.35;;;;;;;;;;5021457;28;20112;-76
2021/12/31 12:14:46;;;;;;;8.02;3.42;;;;;;;;;;5020644;28;20476;-76
2021/12/31 12:17:13;;;;;;;7.47;2.70;;;;;;;;;;5024650;28;20076;-76
2021/12/31 12:19:51;;;;;;;6.82;2.83;;;;;;;;;;5027230;28;20417;-76
2021/12/31 12:22:31;;;;;;;6.70;2.58;;;;;;;;;;5029139;28;20094;-76
2021/12/31 12:24:58;;;;;;;6.75;2.75;;;;;;;;;;5015499;28;20044;-76
2021/12/31 12:27:25;;;;;;;7.75;3.20;;;;;;;;;;5025262;28;20041;-76
2021/12/31 12:29:51;;;;;;;8.82;4.30;;;;;;;;;;5032434;28;20033;-77
2021/12/31 12:32:29;;;;;;;5.70;2.95;;;;;;;;;;5029201;28;20083;-76
2021/12/31 12:34:55;;;;;;;7.70;3.38;;;;;;;;;;5029568;28;20053;-76
2021/12/31 12:37:28;;;;;;;7.63;3.25;;;;;;;;;;5020104;28;20069;-76
2021/12/31 12:39:57;;;;;;;12.77;7.75;;;;;;;;;;5030291;28;20514;-76
2021/12/31 12:42:23;;;;;;;12.32;7.20;;;;;;;;;;5022077;28;20045;-76
2021/12/31 12:44:58;;;;;;;10.18;5.05;;;;;;;;;;5026975;28;20091;-76
2021/12/31 12:47:24;;;;;;;8.18;4.32;;;;;;;;;;5029151;28;20087;-76
2021/12/31 12:49:57;;;;;;;8.05;3.53;;;;;;;;;;5029596;28;20037;-77
2021/12/31 12:52:23;;;;;;;11.50;5.63;;;;;;;;;;5023019;28;20060;-76
2021/12/31 12:54:49;;;;;;;10.68;4.25;;;;;;;;;;5019614;28;20484;-76
2021/12/31 12:57:25;;;;;;;6.25;2.25;;;;;;;;;;5025127;28;20391;-76
2021/12/31 12:59:52;;;;;;;4.38;1.98;;;;;;;;;;5016240;28;20502;-76
2021/12/31 13:02:36;;;;;;;6.82;2.42;;;;;;;;;;5027461;28;20033;-76
2021/12/31 13:05:06;;;;;;;10.50;3.92;;;;;;;;;;5024093;28;20033;-76
2021/12/31 13:07:32;;;;;;;22.17;12.38;;;;;;;;;;5016818;28;20045;-76
2021/12/31 13:10:04;;;;;;;43.25;25.88;;;;;;;;;;5023836;28;20029;-76
2021/12/31 13:12:30;;;;;;;28.00;17.83;;;;;;;;;;5025727;28;20128;-77
2021/12/31 13:14:58;;;;;;;21.75;11.85;;;;;;;;;;5028483;28;20132;-76
2021/12/31 13:17:26;;;;;;;19.52;11.00;;;;;;;;;;5028405;28;20022;-76
2021/12/31 13:20:02;;;;;;;33.72;19.48;;;;;;;;;;5029038;28;20379;-76
2021/12/31 13:22:33;;;;;;;42.65;29.63;;;;;;;;;;5025022;28;20049;-76
2021/12/31 13:24:59;;;;;;;46.58;29.65;;;;;;;;;;5029949;28;20037;-76
2021/12/31 13:27:25;;;;;;;31.65;20.42;;;;;;;;;;5028103;28;20041;-77
2021/12/31 13:30:02;;;;;;;33.20;20.13;;;;;;;;;;5027796;28;20033;-76
2021/12/31 13:32:36;;;;;;;32.85;17.83;;;;;;;;;;5026743;28;20433;-76
2021/12/31 13:35:04;;;;;;;27.45;15.23;;;;;;;;;;5025146;28;20068;-76
2021/12/31 13:37:40;;;;;;;55.95;32.38;;;;;;;;;;5028379;28;20048;-76
2021/12/31 13:40:14;;;;;;;44.97;28.15;;;;;;;;;;5029635;28;20021;-76
2021/12/31 13:42:44;;;;;;;41.30;19.83;;;;;;;;;;5029101;28;20682;-77
2021/12/31 13:45:20;;;;;;;28.23;14.60;;;;;;;;;;5023786;28;20067;-76
2021/12/31 13:47:46;;;;;;;20.75;9.63;;;;;;;;;;5025394;28;20757;-76
2021/12/31 13:50:12;;;;;;;16.90;8.35;;;;;;;;;;5026959;28;20033;-76
2021/12/31 13:52:48;;;;;;;16.65;8.55;;;;;;;;;;5027317;28;20056;-76
2021/12/31 13:55:17;;;;;;;13.70;6.00;;;;;;;;;;5025773;28;20025;-76
2021/12/31 13:58:02;;;;;;;12.35;5.72;;;;;;;;;;5026968;28;20034;-76
2021/12/31 14:00:29;;;;;;;19.70;9.13;;;;;;;;;;5025004;28;20033;-76
2021/12/31 14:02:55;;;;;;;15.60;9.00;;;;;;;;;;5027371;28;20075;-76
2021/12/31 14:05:22;;;;;;;17.63;9.57;;;;;;;;;;5023740;28;20789;-76
2021/12/31 14:08:00;;;;;;;16.35;8.85;;;;;;;;;;5027780;28;20033;-76
2021/12/31 14:10:27;;;;;;;23.52;12.70;;;;;;;;;;5026849;28;20399;-76
2021/12/31 14:12:53;;;;;;;25.85;13.88;;;;;;;;;;5027043;28;20033;-76
2021/12/31 14:15:21;;;;;;;29.45;17.13;;;;;;;;;;5026268;28;20057;-76
2021/12/31 14:17:50;;;;;;;32.45;17.52;;;;;;;;;;5025778;28;20669;-76
2021/12/31 14:20:16;;;;;;;20.25;12.05;;;;;;;;;;5025451;28;20017;-76
2021/12/31 14:22:43;;;;;;;20.88;10.52;;;;;;;;;;5023406;28;20049;-76
2021/12/31 14:25:10;;;;;;;21.38;11.30;;;;;;;;;;5026776;28;20053;-76
2021/12/31 14:27:36;;;;;;;18.50;10.15;;;;;;;;;;5024423;28;20045;-76